Time;durP1;ratioP1;P1;durP2;ratioP2;P2;SDS_P1;SDS_P2;PMS_P1;PMS_P2;Temp;Humidity;BMP_temperature;BMP_pressure;BME280_temperature;BME280_humidity;BME280_pressure;Samples;Min_cycle;Max_cycle;Signal;HPM_P1;HPM_P2
2022/10/27 00:01:26;;;;;;;4.65;3.20;;;14.30;94.10;;;;;;5082498;28;21006;-71
2022/10/27 00:03:54;;;;;;;4.50;2.95;;;14.30;94.10;;;;;;5074540;28;21074;-70
2022/10/27 00:06:21;;;;;;;5.55;2.72;;;14.30;94.10;;;;;;5089121;28;20433;-71
2022/10/27 00:08:49;;;;;;;5.38;3.10;;;14.30;94.10;;;;;;5075137;28;20429;-72
2022/10/27 00:11:16;;;;;;;5.90;3.22;;;14.30;94.10;;;;;;5087680;28;20476;-69
2022/10/27 00:13:43;;;;;;;6.07;2.83;;;14.30;94.10;;;;;;5083803;28;20987;-70
2022/10/27 00:16:14;;;;;;;5.38;3.03;;;14.30;94.20;;;;;;5078769;28;20418;-72
2022/10/27 00:18:41;;;;;;;4.25;2.58;;;14.30;94.30;;;;;;5073333;28;20447;-70
2022/10/27 00:21:11;;;;;;;6.00;3.00;;;14.30;94.30;;;;;;5087279;28;20603;-73
2022/10/27 00:23:39;;;;;;;3.72;3.00;;;14.30;94.50;;;;;;5091960;28;20432;-70
2022/10/27 00:26:06;;;;;;;5.00;3.05;;;14.20;94.50;;;;;;5099779;28;20438;-72
2022/10/27 00:28:34;;;;;;;4.77;2.80;;;14.20;94.50;;;;;;5100541;28;20421;-71
2022/10/27 00:31:02;;;;;;;4.20;2.80;;;14.20;94.50;;;;;;5111201;28;20426;-70
2022/10/27 00:33:30;;;;;;;4.20;3.60;;;14.30;94.50;;;;;;5098339;28;20418;-72
2022/10/27 00:35:57;;;;;;;4.50;3.40;;;14.30;94.50;;;;;;5099676;28;20449;-70
2022/10/27 00:38:25;;;;;;;4.50;2.63;;;14.20;94.60;;;;;;5088894;28;20423;-71
2022/10/27 00:40:51;;;;;;;4.00;2.80;;;14.20;94.50;;;;;;5085079;28;20429;-70
2022/10/27 00:43:30;;;;;;;5.22;3.22;;;14.20;94.60;;;;;;5086944;28;20433;-71
2022/10/27 00:46:01;;;;;;;5.00;3.08;;;14.20;94.60;;;;;;5074419;28;20428;-73
2022/10/27 00:48:29;;;;;;;5.18;2.90;;;14.10;94.70;;;;;;5078484;28;21451;-69
2022/10/27 00:50:57;;;;;;;3.80;2.90;;;14.10;94.70;;;;;;5084441;28;20409;-70
2022/10/27 00:53:25;;;;;;;4.55;3.20;;;14.10;94.70;;;;;;5083186;28;20423;-71
2022/10/27 00:55:52;;;;;;;4.20;2.80;;;14.10;94.70;;;;;;5089452;28;20452;-70
2022/10/27 00:58:19;;;;;;;4.65;2.88;;;14.10;94.70;;;;;;5089391;28;20434;-69
2022/10/27 01:00:47;;;;;;;3.95;2.70;;;14.10;94.70;;;;;;5087469;28;20942;-71
2022/10/27 01:03:20;;;;;;;4.82;2.90;;;14.10;94.80;;;;;;5070346;28;20431;-70
2022/10/27 01:05:46;;;;;;;6.10;3.22;;;14.10;94.80;;;;;;5079660;28;20414;-72
2022/10/27 01:08:16;;;;;;;3.33;2.60;;;14.10;94.70;;;;;;5089885;28;20430;-70
2022/10/27 01:10:44;;;;;;;5.35;2.80;;;14.10;94.80;;;;;;5084147;28;20434;-72
2022/10/27 01:13:11;;;;;;;4.25;3.03;;;14.10;94.70;;;;;;5088956;28;20528;-70
2022/10/27 01:15:45;;;;;;;3.05;2.40;;;14.10;94.70;;;;;;5084279;28;20789;-70
2022/10/27 01:18:21;;;;;;;3.97;2.85;;;14.10;94.70;;;;;;5085025;28;20428;-70
2022/10/27 01:21:36;;;;;;;3.88;2.85;;;14.10;94.70;;;;;;5080454;28;20510;-70
2022/10/27 01:24:39;;;;;;;4.22;2.72;;;14.00;94.80;;;;;;5080921;28;20437;-71
2022/10/27 01:27:17;;;;;;;2.80;2.40;;;14.00;94.80;;;;;;5048886;28;20426;-70
2022/10/27 01:30:06;;;;;;;4.07;2.70;;;14.00;94.90;;;;;;5088298;28;20482;-69
2022/10/27 01:32:39;;;;;;;4.40;2.90;;;13.90;94.90;;;;;;5085433;28;20421;-73
2022/10/27 01:35:13;;;;;;;4.43;2.67;;;13.90;95.00;;;;;;5085864;28;20490;-72
2022/10/27 01:37:45;;;;;;;4.27;2.87;;;13.90;95.00;;;;;;5078493;28;20435;-72
2022/10/27 01:40:18;;;;;;;5.28;3.00;;;13.80;95.20;;;;;;5086961;28;20426;-70
2022/10/27 01:42:49;;;;;;;4.80;2.70;;;13.80;95.30;;;;;;5079914;28;20491;-71
2022/10/27 01:45:20;;;;;;;4.40;3.00;;;13.80;95.30;;;;;;5086946;28;20430;-70
2022/10/27 01:47:50;;;;;;;3.60;2.30;;;13.70;95.20;;;;;;5079621;28;20429;-70
2022/10/27 01:50:18;;;;;;;4.00;2.97;;;13.70;95.30;;;;;;5074837;28;20427;-71
2022/10/27 01:52:46;;;;;;;4.38;2.80;;;13.70;95.30;;;;;;5083637;28;20422;-70
2022/10/27 01:55:23;;;;;;;4.20;2.42;;;13.70;95.20;;;;;;5080080;28;20431;-68
2022/10/27 01:58:17;;;;;;;3.37;2.70;;;13.70;95.20;;;;;;5094147;28;20428;-72
2022/10/27 02:00:55;;;;;;;4.95;2.72;;;13.60;95.10;;;;;;5082097;28;20763;-71
2022/10/27 02:03:27;;;;;;;5.03;2.90;;;13.60;95.10;;;;;;5074911;28;20434;-73
2022/10/27 02:06:04;;;;;;;5.17;3.07;;;13.60;95.00;;;;;;5079974;28;20536;-71
2022/10/27 02:08:37;;;;;;;6.70;2.90;;;13.60;95.10;;;;;;5087094;28;20439;-70
2022/10/27 02:11:06;;;;;;;3.53;2.73;;;13.60;95.10;;;;;;5084956;28;20435;-71
2022/10/27 02:13:37;;;;;;;6.00;3.00;;;13.60;95.10;;;;;;5082141;28;20425;-70
2022/10/27 02:16:08;;;;;;;4.50;2.92;;;13.50;95.20;;;;;;5083166;28;20437;-72
2022/10/27 02:18:41;;;;;;;4.53;3.10;;;13.50;95.20;;;;;;5082572;28;20434;-70
2022/10/27 02:21:11;;;;;;;3.87;2.60;;;13.50;95.20;;;;;;5082343;28;20433;-72
2022/10/27 02:23:39;;;;;;;3.78;3.25;;;13.50;95.20;;;;;;5087918;28;20788;-71
2022/10/27 02:26:14;;;;;;;4.40;2.80;;;13.60;95.30;;;;;;5093787;28;20456;-71
2022/10/27 02:28:45;;;;;;;4.90;2.60;;;13.50;95.20;;;;;;5095143;28;20435;-71
2022/10/27 02:31:13;;;;;;;5.18;2.63;;;13.50;95.30;;;;;;5103705;28;20429;-70
2022/10/27 02:33:42;;;;;;;5.25;3.10;;;13.50;95.40;;;;;;5083880;28;20433;-71
2022/10/27 02:36:09;;;;;;;4.78;2.83;;;13.50;95.40;;;;;;5081116;28;20414;-71
2022/10/27 02:38:36;;;;;;;4.50;2.80;;;13.40;95.50;;;;;;5075230;28;20442;-71
2022/10/27 02:41:02;;;;;;;3.53;2.60;;;13.40;95.60;;;;;;5086929;28;20417;-72
2022/10/27 02:43:29;;;;;;;4.10;2.70;;;13.40;95.70;;;;;;5077759;28;20425;-71
2022/10/27 02:45:56;;;;;;;3.88;2.83;;;13.40;95.60;;;;;;5085176;28;20430;-71
2022/10/27 02:48:22;;;;;;;5.00;2.70;;;13.40;95.60;;;;;;5082627;28;20414;-70
2022/10/27 02:50:50;;;;;;;3.72;2.63;;;13.30;95.80;;;;;;5084568;28;20425;-70
2022/10/27 02:53:17;;;;;;;5.03;2.67;;;13.30;95.90;;;;;;5078588;28;20920;-70
2022/10/27 02:55:44;;;;;;;5.45;2.78;;;13.30;95.80;;;;;;5087405;28;20426;-71
2022/10/27 02:58:10;;;;;;;4.00;3.00;;;13.30;95.80;;;;;;5077093;28;20438;-73
2022/10/27 03:00:37;;;;;;;6.70;2.90;;;13.30;95.80;;;;;;5084433;28;20438;-71
2022/10/27 03:03:04;;;;;;;4.18;2.80;;;13.30;95.90;;;;;;5083750;28;20434;-70
2022/10/27 03:05:31;;;;;;;4.40;3.00;;;13.30;95.80;;;;;;5081321;28;20434;-71
2022/10/27 03:07:59;;;;;;;3.97;3.10;;;13.30;95.90;;;;;;5088120;28;20434;-71
2022/10/27 03:10:25;;;;;;;4.60;2.80;;;13.30;96.00;;;;;;5077761;28;20433;-72
2022/10/27 03:12:52;;;;;;;4.70;3.00;;;13.20;96.00;;;;;;5084336;28;20421;-70
2022/10/27 03:15:19;;;;;;;6.80;3.90;;;13.20;95.90;;;;;;5083809;28;20434;-69
2022/10/27 03:17:46;;;;;;;5.30;3.40;;;13.20;95.90;;;;;;5076401;28;20432;-70
2022/10/27 03:20:14;;;;;;;3.83;2.90;;;13.20;96.00;;;;;;5078220;28;20424;-72
2022/10/27 03:22:41;;;;;;;5.85;3.47;;;13.20;95.90;;;;;;5080540;28;20911;-71
2022/10/27 03:25:13;;;;;;;4.75;3.35;;;13.20;96.00;;;;;;5082960;28;20438;-70
2022/10/27 03:27:40;;;;;;;4.13;2.90;;;13.20;96.10;;;;;;5086109;28;20437;-72
2022/10/27 03:30:08;;;;;;;5.13;3.10;;;13.10;96.10;;;;;;5085888;28;20943;-71
2022/10/27 03:32:35;;;;;;;4.80;3.10;;;13.20;96.10;;;;;;5085795;28;21065;-70
2022/10/27 03:35:02;;;;;;;4.35;3.00;;;13.20;95.90;;;;;;5087191;28;20436;-70
2022/10/27 03:37:29;;;;;;;4.80;3.25;;;13.20;95.90;;;;;;5076509;28;20812;-69
2022/10/27 03:39:55;;;;;;;5.05;2.92;;;13.20;95.90;;;;;;5081746;28;20442;-70
2022/10/27 03:42:23;;;;;;;5.72;3.30;;;13.20;95.90;;;;;;5077559;28;20802;-71
2022/10/27 03:44:50;;;;;;;4.10;3.00;;;13.20;95.80;;;;;;5076711;28;20991;-71
2022/10/27 03:47:17;;;;;;;4.15;2.70;;;13.10;95.80;;;;;;5080667;28;20426;-70
2022/10/27 03:49:43;;;;;;;5.35;3.00;;;13.10;95.80;;;;;;5085448;28;20430;-73
2022/10/27 03:52:10;;;;;;;5.57;3.10;;;13.10;95.80;;;;;;5080624;28;20413;-71
2022/10/27 03:54:37;;;;;;;8.10;2.93;;;13.10;96.00;;;;;;5085370;28;20428;-71
2022/10/27 03:57:04;;;;;;;5.00;2.80;;;13.10;96.00;;;;;;5077647;28;20437;-72
2022/10/27 03:59:32;;;;;;;4.93;3.35;;;13.00;96.00;;;;;;5084032;28;20410;-73
2022/10/27 04:01:59;;;;;;;5.05;2.53;;;13.10;96.10;;;;;;5080922;28;20438;-73
2022/10/27 04:04:25;;;;;;;5.63;2.80;;;13.10;96.10;;;;;;5071423;28;20431;-72
2022/10/27 04:06:52;;;;;;;5.63;3.10;;;13.10;96.10;;;;;;5094291;28;20522;-72
2022/10/27 04:09:19;;;;;;;3.55;2.67;;;13.00;96.10;;;;;;5078837;28;20439;-72
2022/10/27 04:11:45;;;;;;;4.22;2.88;;;13.00;96.10;;;;;;5075219;28;20419;-72
2022/10/27 04:14:13;;;;;;;5.35;3.05;;;13.00;96.10;;;;;;5076620;28;20412;-72
2022/10/27 04:16:41;;;;;;;5.55;2.95;;;13.00;96.10;;;;;;5071031;28;20451;-73
2022/10/27 04:19:08;;;;;;;3.63;2.95;;;13.00;96.10;;;;;;5071147;28;20422;-72
2022/10/27 04:21:35;;;;;;;6.05;2.90;;;13.00;96.10;;;;;;5086990;28;20429;-72
2022/10/27 04:24:01;;;;;;;6.22;3.25;;;12.90;96.10;;;;;;5079850;28;20927;-73
2022/10/27 04:26:28;;;;;;;3.40;2.50;;;13.00;96.20;;;;;;5079991;28;20413;-73
2022/10/27 04:28:55;;;;;;;3.90;3.00;;;13.00;96.20;;;;;;5090728;28;20430;-74
2022/10/27 04:31:22;;;;;;;4.80;3.40;;;12.90;96.20;;;;;;5080763;28;20422;-72
2022/10/27 04:33:50;;;;;;;5.32;3.10;;;12.90;96.30;;;;;;5070712;28;20411;-73
2022/10/27 04:36:16;;;;;;;4.50;2.75;;;12.90;96.30;;;;;;5080992;28;20437;-73
2022/10/27 04:38:43;;;;;;;4.60;3.00;;;12.90;96.30;;;;;;5084862;28;20879;-73
2022/10/27 04:41:10;;;;;;;5.72;3.20;;;12.90;96.40;;;;;;5085202;28;20457;-73
2022/10/27 04:43:36;;;;;;;5.70;3.30;;;12.90;96.40;;;;;;5081301;28;20727;-74
2022/10/27 04:46:03;;;;;;;5.68;3.30;;;12.80;96.40;;;;;;5089088;28;20421;-73
2022/10/27 04:48:30;;;;;;;5.53;3.38;;;12.80;96.50;;;;;;5078322;28;20418;-73
2022/10/27 04:50:58;;;;;;;4.80;3.20;;;12.90;96.60;;;;;;5079944;28;20438;-73
2022/10/27 04:53:25;;;;;;;4.65;3.10;;;12.80;96.70;;;;;;5085630;28;20429;-73
2022/10/27 04:55:53;;;;;;;5.15;3.33;;;12.80;96.70;;;;;;5084100;28;20437;-72
2022/10/27 04:58:20;;;;;;;6.07;3.65;;;12.80;96.80;;;;;;5083938;28;20795;-72
2022/10/27 05:00:47;;;;;;;6.40;4.10;;;12.80;96.80;;;;;;5081007;28;20776;-71
2022/10/27 05:03:14;;;;;;;5.60;3.50;;;12.70;96.90;;;;;;5088683;28;20432;-74
2022/10/27 05:05:41;;;;;;;6.65;3.65;;;12.70;96.90;;;;;;5082272;28;21107;-72
2022/10/27 05:08:10;;;;;;;7.07;3.90;;;12.70;97.00;;;;;;5090169;28;20517;-72
2022/10/27 05:10:38;;;;;;;6.65;3.65;;;12.70;97.10;;;;;;5079794;28;20418;-71
2022/10/27 05:13:04;;;;;;;7.47;3.40;;;12.70;97.20;;;;;;5081080;28;20524;-71
2022/10/27 05:15:31;;;;;;;5.20;3.00;;;12.70;97.30;;;;;;5078859;28;20430;-71
2022/10/27 05:17:58;;;;;;;5.18;3.40;;;12.70;97.30;;;;;;5086109;28;20437;-72
2022/10/27 05:20:26;;;;;;;6.00;3.10;;;12.70;97.30;;;;;;5081645;28;20430;-72
2022/10/27 05:22:52;;;;;;;4.90;3.47;;;12.70;97.30;;;;;;5082418;28;20927;-72
2022/10/27 05:25:21;;;;;;;4.30;3.03;;;12.70;97.30;;;;;;5084739;28;21111;-72
2022/10/27 05:27:48;;;;;;;3.90;3.50;;;12.60;97.40;;;;;;5083857;28;20426;-71
2022/10/27 05:30:15;;;;;;;6.63;3.20;;;12.60;97.40;;;;;;5087167;28;20858;-71
2022/10/27 05:32:42;;;;;;;4.97;3.40;;;12.60;97.40;;;;;;5077647;28;20434;-74
2022/10/27 05:35:09;;;;;;;4.93;3.15;;;12.60;97.40;;;;;;5082728;28;20424;-72
2022/10/27 05:37:36;;;;;;;5.50;3.08;;;12.60;97.40;;;;;;5085999;28;20912;-72
2022/10/27 05:40:03;;;;;;;3.60;3.30;;;12.60;97.50;;;;;;5087760;28;20425;-71
2022/10/27 05:42:32;;;;;;;5.07;3.50;;;12.60;97.50;;;;;;5082955;28;20461;-72
2022/10/27 05:44:58;;;;;;;3.75;3.35;;;12.60;97.60;;;;;;5084814;28;20780;-71
2022/10/27 05:47:25;;;;;;;4.60;3.17;;;12.60;97.60;;;;;;5078962;28;20426;-71
2022/10/27 05:49:52;;;;;;;5.10;3.42;;;12.60;97.60;;;;;;5072695;28;20442;-72
2022/10/27 05:52:19;;;;;;;6.95;4.03;;;12.60;97.50;;;;;;5076722;28;20433;-72
2022/10/27 05:54:45;;;;;;;6.28;3.20;;;12.50;97.50;;;;;;5086228;28;20449;-73
2022/10/27 05:57:12;;;;;;;6.20;3.40;;;12.60;97.50;;;;;;5072849;28;20427;-73
2022/10/27 05:59:40;;;;;;;6.30;4.00;;;12.60;97.40;;;;;;5084921;28;20922;-71
2022/10/27 06:02:08;;;;;;;5.75;3.78;;;12.60;97.40;;;;;;5075120;28;20904;-73
2022/10/27 06:04:35;;;;;;;6.65;3.90;;;12.60;97.50;;;;;;5085889;28;20434;-73
2022/10/27 06:07:02;;;;;;;6.90;4.30;;;12.60;97.40;;;;;;5081210;28;20432;-72
2022/10/27 06:09:28;;;;;;;6.60;4.40;;;12.60;97.40;;;;;;5082559;28;20416;-71
2022/10/27 06:11:55;;;;;;;5.70;4.00;;;12.60;97.30;;;;;;5079608;28;20899;-73
2022/10/27 06:14:22;;;;;;;5.60;3.80;;;12.60;97.30;;;;;;5076166;28;20427;-72
2022/10/27 06:16:50;;;;;;;6.75;3.90;;;12.60;97.20;;;;;;5081120;28;20421;-73
2022/10/27 06:19:17;;;;;;;3.97;3.23;;;12.60;97.20;;;;;;5093147;28;20427;-73
2022/10/27 06:21:43;;;;;;;5.90;3.40;;;12.60;97.10;;;;;;5099176;28;20434;-71
2022/10/27 06:24:10;;;;;;;8.23;4.00;;;12.60;97.10;;;;;;5085871;28;21148;-72
2022/10/27 06:26:37;;;;;;;5.63;3.53;;;12.70;97.00;;;;;;5081484;28;20422;-71
2022/10/27 06:29:03;;;;;;;6.10;3.58;;;12.70;96.90;;;;;;5079283;28;20430;-72
2022/10/27 06:31:30;;;;;;;5.95;3.70;;;12.80;96.80;;;;;;5082826;28;20422;-72
2022/10/27 06:33:58;;;;;;;5.80;3.50;;;12.80;96.70;;;;;;5090187;28;20414;-72
2022/10/27 06:36:25;;;;;;;4.53;3.33;;;12.80;96.70;;;;;;5100154;28;20413;-72
2022/10/27 06:38:52;;;;;;;5.05;3.40;;;12.80;96.60;;;;;;5104711;28;20412;-73
2022/10/27 06:41:19;;;;;;;7.22;3.40;;;12.90;96.50;;;;;;5102702;28;20945;-72
2022/10/27 06:43:45;;;;;;;4.40;3.42;;;12.90;96.40;;;;;;5086174;28;20432;-72
2022/10/27 06:46:12;;;;;;;5.72;3.40;;;12.90;96.40;;;;;;5075093;28;20899;-73
2022/10/27 06:48:39;;;;;;;3.70;3.20;;;12.90;96.30;;;;;;5081337;28;20432;-72
2022/10/27 06:51:07;;;;;;;4.60;3.60;;;12.90;96.20;;;;;;5079106;28;20522;-73
2022/10/27 06:53:34;;;;;;;4.57;3.33;;;13.00;96.20;;;;;;5082017;28;20447;-73
2022/10/27 06:56:00;;;;;;;4.07;3.50;;;13.00;96.00;;;;;;5073475;28;20442;-72
2022/10/27 06:58:27;;;;;;;4.70;3.08;;;13.00;95.90;;;;;;5106186;22;21062;-62
2022/10/27 07:00:54;;;;;;;2.80;2.60;;;13.10;95.90;;;;;;5067247;28;20423;-62
2022/10/27 07:03:20;;;;;;;5.00;3.20;;;13.10;95.60;;;;;;5065875;28;20435;-63
2022/10/27 07:05:47;;;;;;;4.38;3.00;;;13.10;95.60;;;;;;5066690;28;20837;-62
2022/10/27 07:08:15;;;;;;;4.60;3.30;;;13.10;95.60;;;;;;5073024;22;20439;-62
2022/10/27 07:10:42;;;;;;;6.30;3.17;;;13.10;95.70;;;;;;5064458;28;20770;-62
2022/10/27 07:13:09;;;;;;;5.07;3.00;;;13.20;95.60;;;;;;5068659;28;20433;-62
2022/10/27 07:15:37;;;;;;;4.88;3.03;;;13.20;95.50;;;;;;5064000;28;20426;-62
2022/10/27 07:18:06;;;;;;;4.60;3.03;;;13.20;95.50;;;;;;5068808;28;20420;-62
2022/10/27 07:20:34;;;;;;;3.85;2.80;;;13.30;95.50;;;;;;5069092;28;20469;-63
2022/10/27 07:23:01;;;;;;;5.15;3.20;;;13.30;95.20;;;;;;5066519;28;20431;-63
2022/10/27 07:25:30;;;;;;;4.85;3.13;;;13.30;95.10;;;;;;5062252;28;20430;-62
2022/10/27 07:27:57;;;;;;;3.10;2.30;;;13.40;95.10;;;;;;5064884;28;20435;-62
2022/10/27 07:30:26;;;;;;;4.80;2.80;;;13.40;95.00;;;;;;5060193;28;20418;-62
2022/10/27 07:32:53;;;;;;;6.03;2.85;;;13.50;94.90;;;;;;5067407;28;20935;-64
2022/10/27 07:35:21;;;;;;;4.35;2.83;;;13.60;94.80;;;;;;5066495;28;20419;-64
2022/10/27 07:37:48;;;;;;;145.20;132.65;;;13.70;94.30;;;;;;5053364;28;20439;-68
2022/10/27 07:40:16;;;;;;;7.10;6.40;;;13.70;94.10;;;;;;5060075;28;20429;-64
2022/10/27 07:42:46;;;;;;;6.13;2.80;;;13.80;94.10;;;;;;5052561;28;20433;-64
2022/10/27 07:45:14;;;;;;;4.50;2.70;;;13.90;94.00;;;;;;5052335;28;20444;-64
2022/10/27 07:47:44;;;;;;;3.85;2.40;;;14.00;93.60;;;;;;5067857;28;20419;-64
2022/10/27 07:50:11;;;;;;;4.68;2.70;;;14.00;93.30;;;;;;5059951;28;20430;-64
2022/10/27 07:52:42;;;;;;;6.85;2.60;;;14.10;92.80;;;;;;5061272;28;20420;-64
2022/10/27 07:55:10;;;;;;;3.90;2.10;;;14.30;92.60;;;;;;5067716;28;20453;-64
2022/10/27 07:57:37;;;;;;;3.53;2.70;;;14.40;92.50;;;;;;5065907;28;20431;-63
2022/10/27 08:00:07;;;;;;;4.68;2.50;;;14.60;91.70;;;;;;5056501;28;20434;-64
2022/10/27 08:02:34;;;;;;;3.25;2.30;;;14.70;91.20;;;;;;5059031;28;20426;-64
2022/10/27 08:05:01;;;;;;;5.20;2.60;;;14.90;90.70;;;;;;5067781;28;20427;-64
2022/10/27 08:07:29;;;;;;;3.47;2.30;;;15.10;90.30;;;;;;5067633;28;20450;-64
2022/10/27 08:09:55;;;;;;;3.40;2.40;;;15.40;90.00;;;;;;5067485;28;20432;-64
2022/10/27 08:12:22;;;;;;;3.67;2.50;;;15.60;88.70;;;;;;5061141;28;20433;-64
2022/10/27 08:14:49;;;;;;;2.80;2.10;;;15.90;87.40;;;;;;5055303;28;20436;-64
2022/10/27 08:17:17;;;;;;;3.90;2.00;;;16.10;86.00;;;;;;5060378;28;20917;-64
2022/10/27 08:19:44;;;;;;;3.08;2.00;;;16.20;85.30;;;;;;5068309;28;20932;-70
2022/10/27 08:22:10;;;;;;;3.70;1.80;;;16.40;84.40;;;;;;5067364;28;20420;-64
2022/10/27 08:24:37;;;;;;;2.80;1.83;;;16.60;83.40;;;;;;5069078;28;20431;-64
2022/10/27 08:27:04;;;;;;;3.10;2.10;;;16.80;82.60;;;;;;5064791;28;20435;-64
2022/10/27 08:29:31;;;;;;;5.15;2.00;;;17.00;81.80;;;;;;5057520;28;20424;-64
2022/10/27 08:31:57;;;;;;;2.60;1.90;;;17.20;80.20;;;;;;5068417;28;20423;-64
2022/10/27 08:34:26;;;;;;;2.90;1.60;;;17.40;79.30;;;;;;5069295;28;20411;-64
2022/10/27 08:36:52;;;;;;;2.70;1.90;;;17.60;77.80;;;;;;5062265;28;20960;-64
2022/10/27 08:39:19;;;;;;;4.43;1.90;;;17.70;78.10;;;;;;5069441;28;20427;-64
2022/10/27 08:41:56;;;;;;;2.80;1.95;;;17.80;77.00;;;;;;5065630;28;20436;-64
2022/10/27 08:44:26;;;;;;;2.88;2.00;;;17.90;76.80;;;;;;5058921;28;20435;-64
2022/10/27 08:46:55;;;;;;;4.65;2.47;;;18.00;76.40;;;;;;5073232;28;20499;-64
2022/10/27 08:49:31;;;;;;;4.00;2.00;;;18.30;75.00;;;;;;5072349;28;20415;-64
2022/10/27 08:52:03;;;;;;;3.47;1.85;;;18.40;74.70;;;;;;5056103;28;20436;-65
2022/10/27 08:54:30;;;;;;;74.37;67.90;;;18.40;74.70;;;;;;5061761;28;20420;-64
2022/10/27 08:56:59;;;;;;;34.17;31.10;;;18.60;73.80;;;;;;5071058;28;20453;-65
2022/10/27 08:59:26;;;;;;;5.68;2.70;;;18.80;73.50;;;;;;5073663;28;20408;-64
2022/10/27 09:02:01;;;;;;;3.33;1.60;;;19.10;72.10;;;;;;5065375;28;21182;-64
2022/10/27 09:04:43;;;;;;;3.45;1.60;;;19.30;71.30;;;;;;5063392;28;20427;-65
2022/10/27 09:07:21;;;;;;;2.83;1.70;;;19.50;70.00;;;;;;5073436;28;20412;-64
2022/10/27 09:09:54;;;;;;;3.15;1.35;;;19.70;69.60;;;;;;5074468;28;20419;-64
2022/10/27 09:12:46;;;;;;;4.20;1.40;;;19.70;68.50;;;;;;5067906;28;20954;-64
2022/10/27 09:15:28;;;;;;;3.22;1.60;;;19.70;69.00;;;;;;5060031;28;20883;-64
2022/10/27 09:18:00;;;;;;;4.38;1.50;;;19.70;68.90;;;;;;5065271;28;20915;-64
2022/10/27 09:20:33;;;;;;;2.25;1.30;;;19.80;67.90;;;;;;5073455;28;20408;-64
2022/10/27 09:23:03;;;;;;;2.10;1.50;;;19.80;68.10;;;;;;5074172;28;20689;-64
2022/10/27 09:25:31;;;;;;;2.97;1.50;;;19.70;68.40;;;;;;5065424;28;20425;-64
2022/10/27 09:28:00;;;;;;;3.58;1.83;;;19.70;67.90;;;;;;5067568;28;20442;-64
2022/10/27 09:30:33;;;;;;;4.47;2.35;;;19.60;69.00;;;;;;5070270;28;20436;-63
2022/10/27 09:33:01;;;;;;;3.38;1.70;;;19.70;68.80;;;;;;5071557;28;20906;-63
2022/10/27 09:35:29;;;;;;;5.68;1.75;;;19.70;68.50;;;;;;5070195;28;20427;-65
2022/10/27 09:37:58;;;;;;;4.90;1.80;;;19.80;68.70;;;;;;5067198;28;20411;-63
2022/10/27 09:40:28;;;;;;;4.50;1.60;;;19.90;68.00;;;;;;5070445;28;20426;-63
2022/10/27 09:42:56;;;;;;;4.80;1.50;;;20.00;67.90;;;;;;5060940;28;20432;-63
2022/10/27 09:45:25;;;;;;;2.80;1.70;;;20.00;67.40;;;;;;5062963;28;20505;-63
2022/10/27 09:47:54;;;;;;;4.10;1.70;;;20.00;67.70;;;;;;5070050;28;20424;-63
2022/10/27 09:50:23;;;;;;;3.05;1.80;;;19.90;68.30;;;;;;5070934;28;20415;-63
2022/10/27 09:52:52;;;;;;;3.22;1.70;;;19.90;68.20;;;;;;5070470;28;20423;-63
2022/10/27 09:55:19;;;;;;;3.40;1.60;;;20.10;68.30;;;;;;5070021;28;20515;-63
2022/10/27 09:57:48;;;;;;;4.60;1.30;;;20.40;67.40;;;;;;5064772;28;20563;-63
2022/10/27 10:00:26;;;;;;;3.35;1.63;;;20.60;66.40;;;;;;5062691;28;20418;-63
2022/10/27 10:03:00;;;;;;;4.68;1.70;;;20.80;65.70;;;;;;5056995;28;20901;-63
2022/10/27 10:05:28;;;;;;;3.10;1.60;;;21.00;65.00;;;;;;5069862;28;20933;-64
2022/10/27 10:08:12;;;;;;;3.47;1.45;;;21.20;64.70;;;;;;5069851;28;20431;-63
2022/10/27 10:10:40;;;;;;;3.25;1.70;;;21.30;64.00;;;;;;5067612;28;20459;-64
2022/10/27 10:13:13;;;;;;;2.87;1.50;;;21.40;64.20;;;;;;5062292;28;20510;-64
2022/10/27 10:15:42;;;;;;;4.10;1.70;;;21.60;63.60;;;;;;5070338;28;20427;-64
2022/10/27 10:18:24;;;;;;;4.13;1.70;;;21.80;62.90;;;;;;5052770;28;20471;-64
2022/10/27 10:20:57;;;;;;;4.60;1.70;;;22.00;62.40;;;;;;5060014;28;20411;-64
2022/10/27 10:23:27;;;;;;;4.50;1.50;;;21.90;61.80;;;;;;5070785;28;20416;-64
2022/10/27 10:25:57;;;;;;;5.45;1.70;;;21.90;62.40;;;;;;5061006;28;20931;-64
2022/10/27 10:28:31;;;;;;;3.33;1.73;;;22.00;62.00;;;;;;5067892;28;20439;-64
2022/10/27 10:30:59;;;;;;;4.57;1.67;;;22.10;62.00;;;;;;5062025;28;20413;-64
2022/10/27 10:33:31;;;;;;;3.30;1.65;;;22.20;61.90;;;;;;5065936;28;20439;-63
2022/10/27 10:35:58;;;;;;;4.88;1.90;;;22.10;62.30;;;;;;5058413;28;20914;-64
2022/10/27 10:38:28;;;;;;;1.65;1.23;;;22.10;62.10;;;;;;5068112;28;20427;-64
2022/10/27 10:41:10;;;;;;;4.00;1.48;;;22.00;62.30;;;;;;5066678;28;20435;-64
2022/10/27 10:43:37;;;;;;;3.88;1.50;;;22.00;62.80;;;;;;5058348;28;20425;-64
2022/10/27 10:46:04;;;;;;;3.70;1.80;;;22.00;62.30;;;;;;5061446;28;20456;-64
2022/10/27 10:48:37;;;;;;;2.78;1.80;;;22.10;61.60;;;;;;5070485;28;20829;-64
2022/10/27 10:51:05;;;;;;;2.95;1.60;;;22.20;61.30;;;;;;5069955;28;20424;-64
2022/10/27 10:53:37;;;;;;;4.35;1.60;;;22.20;61.20;;;;;;5069568;28;20411;-64
2022/10/27 10:56:18;;;;;;;3.80;1.77;;;22.20;60.40;;;;;;5058533;28;20510;-64
2022/10/27 10:58:46;;;;;;;3.13;1.45;;;22.10;60.90;;;;;;5065175;28;20415;-64
2022/10/27 11:01:13;;;;;;;3.80;1.80;;;22.10;61.20;;;;;;5071280;28;20417;-64
2022/10/27 11:03:44;;;;;;;3.35;2.08;;;22.00;61.20;;;;;;5069532;28;20801;-64
2022/10/27 11:06:18;;;;;;;4.00;2.00;;;21.90;61.70;;;;;;5070261;28;20435;-64
2022/10/27 11:08:56;;;;;;;4.10;2.00;;;22.10;60.90;;;;;;5063598;28;20430;-64
2022/10/27 11:11:25;;;;;;;3.63;1.70;;;22.20;60.60;;;;;;5064406;28;20471;-63
2022/10/27 11:13:56;;;;;;;3.80;1.60;;;22.10;60.60;;;;;;5066367;28;21091;-64
2022/10/27 11:16:24;;;;;;;3.55;2.05;;;22.10;60.60;;;;;;5069931;28;20580;-65
2022/10/27 11:18:53;;;;;;;2.80;1.70;;;22.10;61.30;;;;;;5069964;28;20416;-64
2022/10/27 11:21:31;;;;;;;3.40;1.90;;;22.20;61.10;;;;;;5070168;28;20803;-64
2022/10/27 11:24:03;;;;;;;3.80;1.70;;;22.40;59.70;;;;;;5066869;28;20437;-64
2022/10/27 11:26:34;;;;;;;4.30;1.70;;;22.30;59.70;;;;;;5068908;28;20454;-64
2022/10/27 11:29:11;;;;;;;3.30;1.60;;;22.30;59.90;;;;;;5061636;28;20957;-63
2022/10/27 11:31:47;;;;;;;3.13;1.65;;;22.40;60.00;;;;;;5069760;28;20802;-64
2022/10/27 11:34:24;;;;;;;3.23;1.80;;;22.70;59.30;;;;;;5062533;28;20439;-64
2022/10/27 11:36:56;;;;;;;4.30;1.85;;;22.80;58.70;;;;;;5061372;28;20411;-64
2022/10/27 11:39:31;;;;;;;5.30;2.50;;;22.90;57.80;;;;;;5067407;28;20449;-64
2022/10/27 11:42:06;;;;;;;4.28;1.92;;;22.90;57.70;;;;;;5060071;28;20408;-63
2022/10/27 11:44:42;;;;;;;2.35;1.80;;;22.80;58.20;;;;;;5065074;28;20415;-64
2022/10/27 11:47:14;;;;;;;3.45;1.80;;;22.80;58.40;;;;;;5069977;28;20420;-64
2022/10/27 11:49:49;;;;;;;4.07;1.90;;;22.90;57.90;;;;;;5068533;28;20415;-64
2022/10/27 11:52:22;;;;;;;4.13;2.00;;;23.00;57.80;;;;;;5069351;28;20415;-64
2022/10/27 11:54:50;;;;;;;2.90;1.90;;;23.20;57.20;;;;;;5067609;28;20453;-68
2022/10/27 11:57:26;;;;;;;3.95;2.20;;;23.20;56.80;;;;;;5051503;28;20430;-63
2022/10/27 12:00:05;;;;;;;3.20;1.80;;;23.10;57.60;;;;;;5062666;28;20431;-64
2022/10/27 12:03:04;;;;;;;5.40;2.30;;;23.20;57.60;;;;;;5053425;28;20419;-63
2022/10/27 12:05:35;;;;;;;3.55;1.80;;;23.40;56.90;;;;;;5068308;28;20423;-64
2022/10/27 12:08:13;;;;;;;3.00;1.77;;;23.60;56.10;;;;;;5067699;28;20517;-64
2022/10/27 12:10:52;;;;;;;3.72;2.10;;;23.70;55.90;;;;;;5065388;28;20435;-65
2022/10/27 12:13:25;;;;;;;3.60;2.00;;;23.70;56.20;;;;;;5057341;28;20961;-65
2022/10/27 12:15:58;;;;;;;4.47;2.08;;;23.80;55.50;;;;;;5054971;28;20912;-66
2022/10/27 12:18:32;;;;;;;5.30;2.28;;;23.90;55.70;;;;;;5066462;28;20438;-65
2022/10/27 12:21:04;;;;;;;3.80;2.00;;;23.80;55.40;;;;;;5070311;28;20411;-66
2022/10/27 12:23:37;;;;;;;2.90;1.60;;;23.80;55.10;;;;;;5070936;28;20422;-66
2022/10/27 12:26:11;;;;;;;4.45;1.83;;;23.80;55.60;;;;;;5070905;28;20438;-66
2022/10/27 12:28:38;;;;;;;3.30;1.70;;;24.00;54.70;;;;;;5069926;28;20418;-65
2022/10/27 12:31:12;;;;;;;5.05;1.85;;;23.90;55.00;;;;;;5070655;28;20416;-66
2022/10/27 12:33:46;;;;;;;3.88;2.30;;;23.60;55.70;;;;;;5069606;28;20910;-65
2022/10/27 12:36:19;;;;;;;4.45;1.95;;;23.60;56.40;;;;;;5069448;28;20412;-65
2022/10/27 12:38:54;;;;;;;3.63;1.90;;;23.50;56.40;;;;;;5071174;28;20423;-66
2022/10/27 12:41:30;;;;;;;5.70;1.95;;;23.80;56.00;;;;;;5071223;28;20412;-66
2022/10/27 12:44:08;;;;;;;3.42;1.98;;;24.30;54.90;;;;;;5070877;28;20411;-66
2022/10/27 12:46:48;;;;;;;3.90;2.10;;;24.20;53.80;;;;;;5069109;28;20438;-65
2022/10/27 12:49:22;;;;;;;3.53;1.90;;;24.00;55.00;;;;;;5070946;28;20419;-65
2022/10/27 12:51:59;;;;;;;4.45;2.20;;;24.10;55.10;;;;;;5070578;28;20427;-65
2022/10/27 12:54:43;;;;;;;4.15;2.00;;;24.20;54.60;;;;;;5068890;28;20416;-66
2022/10/27 12:57:25;;;;;;;5.40;2.38;;;24.00;54.70;;;;;;5069367;28;20923;-66
2022/10/27 13:00:01;;;;;;;3.90;2.00;;;23.60;55.90;;;;;;5070047;28;20427;-66